NWS Home NWS Lubbock West Texas Mesonet Latest Conditions as of 0418 PM, Wed Jan 20, 2021

Latest   N   C   S   Daily Sum   3hrΔ   24hrΔ   Soil Data 
Site Map   24hr Precip   72hr Precip   Google Plot


Station Time of Last Temp Dew Pt. RH Wind Direction Wind Speed Wind Gust Max Wind Max Temp Min Temp Max RH Min RH Altimeter 1HR Rain Today's Rain Solar Rad Wind ChillRFTI
Abernathy 5ENE  04:10 PM 55 34 44% SW1620 27 mph 248° @ 1237 PM 56 35 66 42 30.09" 0 0 264   0
Adrian 6WSW  04:10 PM 59 29 32% SW2025 40 mph 243° @ 0309 PM 60 27 88 31 29.99" 0 0 314   0
Aiken 3WSW  04:10 PM 56 33 43% SW1618 28 mph 249° @ 0118 PM 57 31 74 42 30.08" 0 0 271   0
Amarillo 15NNW   04:10 PM 65 33 30% SW2228 40 mph 210° @ 1050 AM 66 25 80 28 29.96" 0 0 138   1
Amarillo 7SSE  04:10 PM 61 32 34% SW2327 32 mph 228° @ 1036 AM 62 23 80 33 30.00" 0 0 319   2
Amarillo 9NNE  04:10 PM 62 32 32% SW2125 39 mph 207° @ 1056 AM 62 25 83 31 29.97" 0 0 247   0
Amherst 1NE  04:10 PM 59 34 40% SW1925 25 mph 234° @ 0410 PM 59 34 69 39 30.07" 0 0 378   0
Andrews 2E  04:10 PM 50 38 62% W1013 21 mph 221° @ 0158 PM 51 35 91 54 30.15" 0 0.09 213   0
Anton 6SSW  04:10 PM 56 34 44% SW1722 25 mph 251° @ 0315 PM 56 34 70 44 30.09" 0 0 313   0
Aspermont 3NE  04:10 PM 49 39 70% SW810 18 mph 220° @ 1250 PM 49 39 89 58 30.15" 0 0.02 69   0
Big Bend NP - Castolon  04:10 PM 51 37 60% NW56 19 mph 342° @ 0354 AM 54 47 68 51 30.21" 0 0 49   0
Big Bend NP - Persimmon Gap  04:10 PM 48 38 67% SW810 27 mph 38° @ 0426 AM 48 39 93 66 30.19" 0 0.01 62   0
Big Lake 1WNW  04:10 PM 46 40 79% SW89 13 mph 43° @ 1205 AM 46 37 99 66 30.19" 0 0.06 105   0
Bootleg 11WNW  04:10 PM 57 30 35% SW2428 36 mph 227° @ 0128 PM 58 24 91 34 30.04" 0 0 261   2
Borger 7E  04:10 PM 63 31 30% SW2433 35 mph 205° @ 0201 PM 63 25 77 30 29.95" 0 0 354   2
Boys Ranch 1WSW  04:10 PM 65 31 28% W1419 33 mph 251° @ 0246 PM 66 21 89 28 29.96" 0 0 309   0
Brownfield 2S  04:10 PM 53 35 51% SW1619 23 mph 245° @ 0305 PM 53 36 84 50 30.12" 0 0 311   0
Canadian 6E  04:10 PM 57 32 38% SW2024 33 mph 205° @ 1102 AM 58 22 73 31 29.94" 0 0 291   0
Caprock Canyons State Park  04:10 PM 58 33 39% SW1619 26 mph 218° @ 1141 AM 58 36 64 37 30.06" 0 0 295   0
Childress 2NNE  04:10 PM 53 32 44% S1013 21 mph 222° @ 0130 PM 53 36 67 41 30.08" 0 0 139   0
Clarendon 2WSW  04:10 PM 57 33 41% S1723 24 mph 222° @ 0205 PM 57 27 80 37 30.02" 0 0 295   0
Claude 12SW  04:10 PM 58 31 37% S1419 23 mph 180° @ 0243 PM 58 34 61 30 30.00" 0 0 261   0
Clyde 2WNW  04:10 PM 43 42 97% W67 17 mph 243° @ 0141 PM 43 36 99 54 30.18" 0 0.43 54   0
Colorado City 5NW  04:10 PM 47 40 77% W811 16 mph 250° @ 0333 PM 47 37 94 53 30.18" 0 0.07 226   0
Comanche Springs  04:10 PM 53 34 48% SW1013 18 mph 211° @ 0403 PM 53 36 79 47 30.11" 0 0 285   0
Coyanosa 2N  04:10 PM 48 37 66% SE33 9 mph 75° @ 0104 AM 49 38 94 53 30.19" 0 0.05 145   0
Crane 1NNW   04:10 PM 45 37 72% SW58 10 mph 246° @ 0112 PM 45 38 90 57 30.19" 0 0.02 70   0
Crowell 1E  04:10 PM 50 37 60% S1315 15 mph 197° @ 0410 PM 50 40 73 55 30.12" 0 0 280   0
Dell City  04:10 PM 52 36 55% S22 12 mph 252° @ 1205 AM 52 36 91 45 30.20" 0 0.01 430   0
Denver City 7WNW  04:10 PM 51 34 53% SW1417 19 mph 247° @ 0215 PM 52 34 89 52 30.13" 0 0.01 213   0
Dimmitt 2NE  04:10 PM 56 33 41% SW1924 30 mph 231° @ 1215 PM 56 28 78 40 30.04" 0 0 219   0
Doole 3WNW  04:10 PM 45 42 89% W55 13 mph 283° @ 0219 PM 45 39 97 70 30.19" 0 0.68 144   0
Dora NM 2SW  04:10 PM 56 32 40% W2228 28 mph 256° @ 0410 PM 56 29 73 40 30.09" 0 0 323   0
Dozier 3W  04:10 PM 57 32 38% S1419 25 mph 199° @ 0314 PM 57 26 72 35 30.03" 0 0 270   0
Earth 9WSW  04:10 PM 59 34 39% W1823 26 mph 263° @ 0313 PM 60 31 73 38 30.08" 0 0 223   0
Endee NM 2SW  04:10 PM 63 32 30% W2430 34 mph 230° @ 0302 PM 63 24 92 30 29.99" 0 0 317   2
Estelline 3SSE  04:10 PM 56 33 41% S1317 19 mph 239° @ 0258 PM 56 33 72 39 30.06" 0 0 319   0
Floydada 2NNE  04:10 PM 56 32 41% SW1722 25 mph 226° @ 1255 PM 56 35 65 40 30.08" 0 0 269   0
Fluvanna 3WNW  04:10 PM 43 38 84% SW69 20 mph 228° @ 1240 PM 43 36 87 55 30.14" 0 0 121   0
Fort Chadbourne  04:10 PM 45 43 92% W79 12 mph 35° @ 1205 AM 45 38 100 57 30.18" 0 0.48 73   0
Fort Lancaster  04:10 PM 47 41 79% N00 12 mph 38° @ 1204 AM 47 40 100 75 30.19" 0 0.04 84   0
Fort Lewis CO  04:10 PM 34 28 78% SW1012 18 mph 76° @ 1206 AM 37 13 100 60 30.20" 0 0.38 386 26 0
Fort McKavett  04:10 PM 44 44 100% W33 18 mph 40° @ 0206 AM 44 39 100 92 30.20" 0 0.94 68   0
Friona 2NE  04:10 PM 59 32 37% SW2232 32 mph 228° @ 0410 PM 59 26 81 36 30.04" 0 0 351   0
Fritch 1WNW  04:10 PM 65 33 30% SW1924 38 mph 237° @ 0335 PM 66 28 73 29 29.94" 0 0 290   0
Gail 2ESE  04:10 PM 46 39 77% SW912 18 mph 235° @ 1232 PM 46 37 90 51 30.15" 0 0.02 193   0
Goodlett 3W  04:10 PM 54 33 44% SW1116 18 mph 213° @ 0330 PM 54 35 76 44 30.08" 0 0 245   0
Goodnight  04:10 PM 55 30 38% S2225 32 mph 214° @ 1140 AM 57 27 70 33 30.01" 0 0 193   0
Graham 5SSW  04:10 PM 51 35 55% W1315 23 mph 247° @ 0214 PM 51 37 80 55 30.13" 0 0 206   0
Guadalupe Mtns Natl Park  04:10 PM 52 37 59% W1821 42 mph 241° @ 1212 PM 55 28 96 54 30.16" 0 0.04 159   0
Guthrie 10WSW  04:10 PM 51 34 51% SW1418 21 mph 223° @ 1120 AM 52 40 64 47 30.12" 0 0 114   0
Hackberry 2SSE  04:10 PM 52 34 51% SW1113 19 mph 239° @ 0337 PM 53 40 72 48 30.12" 0 0 123   0
Happy 1E  04:10 PM 58 33 39% SW2226 30 mph 226° @ 0109 PM 58 29 72 36 30.03" 0 0 277   0
Hart 3N  04:10 PM 57 34 41% SW2127 27 mph 223° @ 0410 PM 57 26 84 41 30.04" 0 0 407   0
Haskell 1NW  04:10 PM 46 41 84% SW1113 15 mph 235° @ 0100 PM 46 38 91 56 30.15" 0 0.05 91   0
Hefner 1SW  04:10 PM 47 41 81% S1011 16 mph 228° @ 1221 PM 47 39 88 54 30.15" 0 0 68   0
Hereford 2NW  04:10 PM 59 32 36% SW2127 34 mph 238° @ 1120 AM 60 25 82 36 30.01" 0 0 275   0
Hobbs NM 5NW  04:10 PM 48 32 53% SW911 16 mph 210° @ 1126 AM 49 34 83 51 30.17" 0 0.01 163   0
Jayton 1SSE  04:10 PM 48 37 67% SW1114 19 mph 242° @ 1235 PM 49 39 79 58 30.14" 0 0 58   0
Junction 1SSW  04:10 PM 46 45 98% NW22 19 mph 70° @ 0733 AM 46 41 100 94 30.21" 0 0.95 25   0
Kent 9E  04:10 PM 55 42 61% W1518 19 mph 257° @ 0355 PM 59 34 93 57 30.18" 0 0.03 180   0
Knox City 3NW  04:10 PM 49 41 75% SW911 16 mph 202° @ 1002 AM 50 40 84 57 30.14" 0 0 61   0
Lake Alan Henry 1NW  04:10 PM 49 36 61% SW1012 18 mph 219° @ 1120 AM 49 39 74 54 30.14" 0 0 66   0
Lake McClellan 2NW  04:10 PM 54 31 42% SW1416 32 mph 239° @ 1118 AM 55 26 62 31 30.01" 0 0 115   0
Lamesa 2SE  04:10 PM 48 39 70% W1114 18 mph 242° @ 0330 PM 48 36 87 57 30.16" 0 0.03 348   0
Lesley 2S  04:10 PM 61 36 38% SW1114 21 mph 204° @ 0115 PM 62 31 71 34 30.04" 0 0 280   0
Levelland 4S  04:10 PM 55 34 44% W1620 25 mph 261° @ 0309 PM 56 36 64 43 30.10" 0 0 251   0
Lomax 1SSE  04:10 PM 46 40 77% SW1012 15 mph 229° @ 0149 PM 47 36 89 54 30.18" 0 0.11 174   0
Lubbock 3WNW TTU  04:10 PM 56 35 46% SW1116 23 mph 242° @ 0115 PM 56 38 64 46 30.10" 0 0 253   0
McAdoo 3NNW  04:10 PM 52 36 54% SW1619 26 mph 231° @ 1227 PM 53 38 73 52 30.11" 0 0 162   0
McCamey 1SSW  04:10 PM 46 37 72% W45 10 mph 29° @ 0612 AM 46 39 90 61 30.20" 0 0.03 63   0
McLean 1E  04:10 PM 54 34 46% S2227 32 mph 206° @ 0235 PM 54 32 59 38 29.98" 0 0 238   0
Memphis 1NE  04:10 PM 58 33 39% S1318 24 mph 207° @ 0403 PM 58 30 68 33 30.05" 0 0 279   0
Menard 2NW   04:10 PM 45 44 97% W56 14 mph 42° @ 0256 AM 45 39 100 80 30.20" 0 1.03 64   0
Mertzon 3NNE  04:10 PM 47 44 89% SW67 16 mph 33° @ 1213 AM 47 37 100 60 30.19" 0 0.34 133   0
Morton 1ENE  04:10 PM 57 32 40% SW1623 23 mph 233° @ 0410 PM 58 35 60 38 30.09" 0 0 273   0
Muleshoe 2SSW  04:10 PM 58 34 40% SW1924 27 mph 239° @ 0405 PM 59 29 83 39 30.06" 0 0 395   0
New Home  04:10 PM 53 36 53% W1314 22 mph 243° @ 1216 PM 53 37 70 53 30.13" 0 0 388   0
Northfield 1S  04:10 PM 56 33 42% SW1318 20 mph 233° @ 0100 PM 56 33 74 38 30.08" 0 0 144   0
O'Donnell 1N  04:10 PM 50 36 59% W1417 22 mph 253° @ 0340 PM 51 37 82 58 30.14" 0 0 156   0
Odell 4ENE  04:10 PM 48 34 58% S1316 16 mph 196° @ 0410 PM 49 32 81 51 30.13" 0 0 314   0
Olton 6S  04:10 PM 57 34 43% SW1620 26 mph 239° @ 0205 PM 57 33 74 43 30.06" 0 0 347   0
Paducah 10SW  04:10 PM 54 35 50% SW1317 20 mph 232° @ 0335 PM 54 40 70 46 30.10" 0 0 280   0
Palo Duro 4E (JA Ranch)  04:10 PM 58 33 39% S1821 24 mph 233° @ 1126 AM 59 27 84 33 30.03" 0 0 141   0
Palo Duro Canyon SP Floor  04:10 PM 62 33 33% SW48 22 mph 258° @ 1147 AM 62 27 72 31 30.00" 0 0 290   0
Palo Duro Canyon State Park Rim  04:10 PM 60 32 35% SW1722 26 mph 217° @ 0116 PM 61 28 71 32 30.02" 0 0 305   0
Palo Duro Reservoir 1NW   04:10 PM 64 30 28% SW2329 40 mph 208° @ 1058 AM 65 21 86 27 29.91" 0 0 270   2
Pampa 2E  04:10 PM 57 32 39% S1723 30 mph 205° @ 1030 AM 58 25 67 34 29.98" 0 0 215   0
Panhandle 1SSW  04:10 PM 60 33 35% SW2330 37 mph 216° @ 1059 AM 61 24 78 30 29.99" 0 0 275   2
Plains 3N  04:10 PM 53 35 50% SW1317 23 mph 241° @ 0115 PM 53 34 80 49 30.12" 0 0 309   0
Plainview 1S  04:10 PM 56 33 40% SW1822 34 mph 232° @ 0114 PM 56 33 71 40 30.08" 0 0 425   0
Post 1NE  04:10 PM 52 36 52% SW1113 20 mph 239° @ 0141 PM 52 39 71 52 30.13" 0 0 354   0
Ralls 1SE  04:10 PM 53 35 51% SW1015 26 mph 222° @ 1230 PM 53 37 72 50 30.11" 0 0 181   0
Reese Center  04:10 PM 56 34 44% SW1619 24 mph 231° @ 0335 PM 56 37 71 43 30.09" 0 0 335   0
Roaring Springs 3N  04:10 PM 54 35 48% SW1722 25 mph 231° @ 1258 PM 54 38 69 44 30.09" 0 0 221   0
Romero 11SSW  04:10 PM 61 30 31% W1619 36 mph 226° @ 0202 PM 61 25 94 30 29.97" 0 0 298   0
Rotan 5W  04:10 PM 47 38 71% SW1112 20 mph 228° @ 1227 PM 47 37 90 54 30.16" 0 0.02 249   0
San Angelo 7NW  04:10 PM 46 41 85% SW710 12 mph 240° @ 0250 PM 46 38 97 63 30.18" 0 0.37 107   0
Seagraves 1SW  04:10 PM 50 36 60% SW1417 19 mph 232° @ 0320 PM 50 35 83 54 30.13" 0 0 141   0
Segovia 7SSW  04:10 PM 45 44 98% W34 19 mph 84° @ 0812 AM 45 39 98 88 30.19" 0 0.84 44   0
Seminole 2NNE  04:10 PM 50 36 60% SW1115 18 mph 232° @ 0250 PM 51 35 83 56 30.14" 0 0.02 228   0
Seymour 3NW  04:10 PM 45 41 89% S812 15 mph 184° @ 1005 AM 46 39 89 54 30.15" 0 0 40   0
Sierra Blanca 1SSE  04:10 PM 47 39 72% S45 14 mph 107° @ 0237 AM 48 32 100 70 30.21" 0 0.10 168   0
Silverton 7ESE  04:10 PM 57 34 43% SW2125 31 mph 232° @ 1130 AM 57 29 77 41 30.05" 0 0 284   0
Slaton 2NE  04:10 PM 52 36 55% SW1316 23 mph 224° @ 0353 PM 53 37 77 53 30.12" 0 0 255   0
Smyer  04:10 PM 56 34 43% SW1215 22 mph 259° @ 0153 PM 56 37 66 43 30.10" 0 0 347   0
Snyder 3E  04:10 PM 45 37 73% W1014 19 mph 231° @ 0145 PM 46 36 93 56 30.16" 0 0.01 66   0
Snyder 3SSW  04:10 PM 45 38 76% W1214 18 mph 235° @ 1259 PM 46 36 93 54 30.17" 0 0.01 73   0
South Plains 3ENE  04:10 PM 57 34 42% SW1620 27 mph 255° @ 1258 PM 57 32 72 42 30.07" 0 0 147   0
Spur 1W  04:10 PM 52 35 54% SW812 19 mph 254° @ 1235 PM 52 40 69 50 30.12" 0 0 164   0
St. Lawrence 5SW  04:10 PM 46 39 80% W1012 15 mph 252° @ 0345 PM 46 36 90 66 30.17" 0 0.04 137   0
Stamford 5ESE  04:10 PM 44 43 96% S88 15 mph 241° @ 0109 PM 44 38 96 55 30.18" 0.02 0.15 27   0
Sterling City 4WSW  04:10 PM 48 39 72% W79 14 mph 246° @ 0311 PM 48 37 100 56 30.18" 0 0.09 131   0
Stinnett 1NNW  04:10 PM 66 34 31% SW1619 36 mph 210° @ 1035 AM 66 25 82 30 29.95" 0 0 325   0
Stratford 4WNW  04:10 PM 60 29 31% SW1617 34 mph 209° @ 0803 AM 60 21 89 30 29.95" 0 0 310   0
Sundown 8WSW  04:10 PM 55 33 44% SW1418 23 mph 238° @ 0255 PM 56 34 71 42 30.11" 0 0 210   0
Sweetwater 11SW   04:10 PM 43 40 90% W1113 17 mph 237° @ 1157 AM 43 36 97 57 30.17" 0 0.22 140   0
Tahoka 3NNE  04:10 PM 50 36 57% SW1114 21 mph 254° @ 0236 PM 52 36 75 54 30.13" 0 0 193   0
Tarzan 2WNW  04:10 PM 47 39 74% SW1012 15 mph 226° @ 0314 PM 47 36 89 53 30.16" 0 0.06 172   0
Tatum NM 2SW  04:10 PM 51 32 49% SW1418 20 mph 260° @ 0250 PM 52 32 87 46 30.14" 0 0 267   0
Throckmorton 1SW  04:10 PM 43 43 98% S510 12 mph 243° @ 1228 PM 44 38 98 50 30.17" 0.02 0.13 35   0
Truscott 2SE  04:10 PM 50 37 60% SW910 18 mph 242° @ 1251 PM 50 41 70 56 30.13" 0 0 110   0
Tulia 2ENE  04:10 PM 56 32 41% SW1924 28 mph 225° @ 1110 AM 56 28 73 38 30.04" 0 0 356   0
Turkey 2WSW  04:10 PM 58 35 42% SW1822 25 mph 215° @ 0220 PM 58 38 63 40 30.05" 0 0 261   0
Umbarger 3NNE  04:10 PM 59 32 36% SW2228 35 mph 229° @ 0405 PM 60 25 77 35 30.01" 0 0 323   0
Van Horn 3ENE  04:10 PM 52 38 59% S810 17 mph 14° @ 0351 AM 52 34 89 58 30.20" 0 0.04 213   0
Vega 4E  04:10 PM 61 30 30% SW2226 39 mph 237° @ 0346 PM 62 23 89 30 29.99" 0 0 399   2
Vigo Park  04:10 PM 55 32 41% SW2025 30 mph 219° @ 0359 PM 56 28 81 35 30.04" 0 0 248   0
Wall 2E  04:10 PM 46 43 90% W67 19 mph 46° @ 1203 AM 46 38 99 75 30.20" 0 0.76 75   0
Weinert 2NNE  04:10 PM 47 40 79% SW1314 15 mph 204° @ 1044 AM 47 38 86 52 30.15" 0 0.01 64   0
Welch  04:10 PM 50 37 61% SW1517 20 mph 266° @ 0222 PM 50 36 89 58 30.14" 0 0 421   0
White River Lake 6NW  04:10 PM 53 36 53% SW79 22 mph 222° @ 0358 PM 53 38 70 48 30.11" 0 0 330   0
Wolfforth 6SSW  04:10 PM 55 35 47% SW1821 23 mph 232° @ 0327 PM 55 37 71 47 30.11" 0 0 146   0

West Texas Mesonet Home   Site Map/Menu  NWS Lubbock Soil Data  Daily Summary Page  24hr Precip  72hr Precip  Google Plot